createdAt,value
2019-01-26T00:00:49.503Z,55.57
2019-01-26T00:02:57.185Z,56.20
2019-01-26T00:05:03.865Z,49.57
2019-01-26T00:07:10.414Z,55.63
2019-01-26T00:09:16.636Z,54.47
2019-01-26T00:11:22.959Z,54.13
2019-01-26T00:13:29.716Z,47.77
2019-01-26T00:15:36.394Z,46.03
2019-01-26T00:17:44.285Z,56.03
2019-01-26T00:19:50.460Z,45.57
2019-01-26T00:21:59.743Z,44.67
2019-01-26T00:24:08.748Z,51.70
2019-01-26T00:26:16.600Z,53.13
2019-01-26T00:28:22.771Z,49.97
2019-01-26T00:30:30.302Z,38.77
2019-01-26T00:32:40.299Z,45.23
2019-01-26T00:34:46.654Z,47.67
2019-01-26T00:36:52.922Z,51.20
2019-01-26T00:38:59.343Z,50.00
2019-01-26T00:41:05.731Z,49.33
2019-01-26T00:43:12.141Z,52.93
2019-01-26T00:45:19.700Z,49.93
2019-01-26T00:47:27.631Z,53.87
2019-01-26T00:49:33.748Z,42.17
2019-01-26T00:51:41.451Z,43.17
2019-01-26T00:53:48.488Z,52.33
2019-01-26T00:55:54.802Z,47.53
2019-01-26T00:58:00.934Z,52.70
2019-01-26T01:00:22.235Z,44.30
2019-01-26T01:02:28.298Z,42.90
2019-01-26T01:04:34.518Z,48.67
2019-01-26T01:06:40.938Z,48.53
2019-01-26T01:08:47.296Z,47.83
2019-01-26T01:10:57.154Z,44.93
2019-01-26T01:13:03.080Z,56.10
2019-01-26T01:15:14.468Z,46.53
2019-01-26T01:17:22.454Z,53.07
2019-01-26T01:19:30.217Z,47.43
2019-01-26T01:21:37.562Z,45.83
2019-01-26T01:23:44.109Z,47.67
2019-01-26T01:25:50.489Z,46.47
2019-01-26T01:27:57.024Z,54.77
2019-01-26T01:30:03.108Z,49.27
2019-01-26T01:32:11.501Z,54.60
2019-01-26T01:34:19.510Z,50.50
2019-01-26T01:36:25.890Z,50.00
2019-01-26T01:38:32.179Z,49.73
2019-01-26T01:40:40.259Z,48.63
2019-01-26T01:42:49.112Z,43.63
2019-01-26T01:44:56.851Z,47.40
2019-01-26T01:47:03.634Z,53.20
2019-01-26T01:49:10.119Z,45.40
2019-01-26T01:51:16.570Z,48.47
2019-01-26T01:53:22.811Z,54.87
2019-01-26T01:55:29.651Z,46.83
2019-01-26T01:57:36.218Z,44.53
2019-01-26T01:59:43.847Z,44.00
2019-01-26T02:01:50.116Z,53.17
2019-01-26T02:03:56.371Z,45.80
2019-01-26T02:06:03.360Z,49.10
2019-01-26T02:08:16.270Z,43.97
2019-01-26T02:10:24.221Z,44.93
2019-01-26T02:12:30.438Z,57.87
2019-01-26T02:14:38.520Z,45.87
2019-01-26T02:16:50.049Z,51.87
2019-01-26T02:18:53.924Z,57.13
2019-01-26T02:21:01.926Z,51.43
2019-01-26T02:23:08.224Z,54.67
2019-01-26T02:25:14.694Z,53.33
2019-01-26T02:27:21.603Z,50.50
2019-01-26T02:29:27.663Z,48.77
2019-01-26T02:31:34.246Z,54.03
2019-01-26T02:33:40.711Z,57.90
2019-01-26T02:35:46.914Z,62.07
2019-01-26T02:37:53.247Z,60.80
2019-01-26T02:40:00.848Z,49.37
2019-01-26T02:42:08.492Z,56.23
2019-01-26T02:44:17.070Z,48.87
2019-01-26T02:46:23.182Z,52.70
2019-01-26T02:48:29.600Z,54.87
2019-01-26T02:50:36.527Z,56.33
2019-01-26T02:52:43.970Z,64.30
2019-01-26T02:54:50.052Z,56.17
2019-01-26T02:56:56.127Z,55.93
2019-01-26T02:59:03.378Z,51.93
2019-01-26T03:01:09.635Z,62.00
2019-01-26T03:03:16.892Z,64.53
2019-01-26T03:05:23.583Z,60.10
2019-01-26T03:07:31.291Z,58.60
2019-01-26T03:09:37.983Z,60.97
2019-01-26T03:11:45.083Z,62.60
2019-01-26T03:13:52.851Z,60.37
2019-01-26T03:16:02.072Z,52.73
2019-01-26T03:18:08.341Z,65.67
2019-01-26T03:20:16.809Z,56.37
2019-01-26T03:22:22.789Z,62.60
2019-01-26T03:24:29.567Z,63.67
2019-01-26T03:26:37.477Z,53.67
2019-01-26T03:28:43.742Z,61.13
2019-01-26T03:30:51.993Z,55.87
2019-01-26T03:32:57.990Z,59.87
2019-01-26T03:37:39.943Z,61.67
2019-01-26T03:42:30.954Z,56.90
2019-01-26T03:44:37.296Z,56.20
2019-01-26T03:46:43.762Z,56.73
2019-01-26T03:48:49.913Z,65.57
2019-01-26T03:50:56.231Z,63.57
2019-01-26T03:53:02.321Z,61.50
2019-01-26T03:55:12.583Z,58.57
2019-01-26T03:57:20.253Z,58.63
2019-01-26T03:59:28.084Z,72.03
2019-01-26T04:01:34.446Z,63.33
2019-01-26T04:03:40.498Z,59.37
2019-01-26T04:05:48.146Z,58.00
2019-01-26T04:07:54.456Z,67.67
2019-01-26T04:10:00.606Z,66.07
2019-01-26T04:12:07.034Z,67.50
2019-01-26T04:14:13.132Z,57.27
2019-01-26T04:16:20.050Z,63.30
2019-01-26T04:18:26.247Z,64.97
2019-01-26T04:20:32.885Z,62.90
2019-01-26T04:22:40.368Z,67.90
2019-01-26T04:24:47.229Z,57.30
2019-01-26T04:26:55.573Z,64.60
2019-01-26T04:29:02.131Z,73.17
2019-01-26T04:31:08.574Z,67.23
2019-01-26T04:33:16.969Z,66.17
2019-01-26T04:35:23.143Z,70.17
2019-01-26T04:37:29.646Z,64.03
2019-01-26T04:39:36.262Z,63.87
2019-01-26T04:41:42.329Z,67.80
2019-01-26T04:43:48.369Z,65.53
2019-01-26T04:45:54.891Z,69.97
2019-01-26T04:48:01.363Z,65.67
2019-01-26T04:50:11.856Z,64.70
2019-01-26T04:52:18.320Z,75.87
2019-01-26T04:54:26.075Z,69.70
2019-01-26T04:56:32.729Z,65.23
2019-01-26T04:58:39.249Z,73.27
2019-01-26T05:00:45.773Z,65.63
2019-01-26T05:02:52.510Z,73.13
2019-01-26T05:04:59.517Z,64.47
2019-01-26T05:07:05.710Z,62.47
2019-01-26T05:09:11.811Z,68.90
2019-01-26T05:11:18.456Z,78.07
2019-01-26T05:13:26.180Z,63.20
2019-01-26T05:15:32.469Z,64.70
2019-01-26T05:17:39.523Z,65.70
2019-01-26T05:19:46.054Z,70.23
2019-01-26T05:21:52.345Z,59.27
2019-01-26T05:23:58.651Z,76.10
2019-01-26T05:26:05.018Z,68.70
2019-01-26T05:28:12.162Z,70.20
2019-01-26T05:30:25.625Z,75.77
2019-01-26T05:32:31.783Z,69.07
2019-01-26T05:34:39.883Z,73.23
2019-01-26T05:36:47.258Z,76.57
2019-01-26T05:38:53.635Z,77.20
2019-01-26T05:41:00.012Z,84.37
2019-01-26T05:43:06.055Z,98.43
2019-01-26T05:45:18.841Z,101.93
2019-01-26T05:47:26.755Z,81.53
2019-01-26T05:49:33.126Z,79.63
2019-01-26T05:51:41.756Z,70.67
2019-01-26T05:53:48.772Z,83.20
2019-01-26T05:55:55.199Z,76.97
2019-01-26T05:58:01.329Z,95.07
2019-01-26T06:00:13.348Z,78.07
2019-01-26T06:02:19.806Z,77.27
2019-01-26T06:04:26.879Z,66.47
2019-01-26T06:06:33.375Z,60.90
2019-01-26T06:08:44.303Z,74.83
2019-01-26T06:10:55.820Z,119.67
2019-01-26T06:13:02.922Z,88.57
2019-01-26T06:15:12.206Z,69.50
2019-01-26T06:17:18.773Z,68.23
2019-01-26T06:19:25.117Z,69.17
2019-01-26T06:21:32.091Z,76.27
2019-01-26T06:23:38.962Z,72.20
2019-01-26T06:25:45.039Z,93.67
2019-01-26T06:27:52.992Z,73.00
2019-01-26T06:30:00.012Z,73.60
2019-01-26T06:32:06.343Z,82.43
2019-01-26T06:34:13.263Z,82.37
2019-01-26T06:36:19.463Z,72.17
2019-01-26T06:38:25.694Z,80.03
2019-01-26T06:40:32.146Z,89.80
2019-01-26T06:42:38.271Z,78.07
2019-01-26T06:44:46.120Z,88.23
2019-01-26T06:46:52.370Z,75.37
2019-01-26T06:48:59.227Z,91.57
2019-01-26T06:51:06.198Z,74.57
2019-01-26T06:53:12.417Z,101.83
2019-01-26T06:55:19.455Z,94.27
2019-01-26T06:57:25.491Z,103.80
2019-01-26T06:59:31.571Z,157.93
2019-01-26T07:01:40.994Z,115.90
2019-01-26T07:03:48.851Z,84.90
2019-01-26T07:05:59.853Z,76.60
2019-01-26T07:08:06.332Z,83.73
2019-01-26T07:10:12.632Z,93.80
2019-01-26T07:12:19.968Z,94.10
2019-01-26T07:14:26.231Z,85.83
2019-01-26T07:16:32.903Z,79.30
2019-01-26T07:18:39.037Z,76.33
2019-01-26T07:20:46.855Z,77.10
2019-01-26T07:22:53.001Z,70.40
2019-01-26T07:25:00.995Z,72.10
2019-01-26T07:27:07.412Z,88.87
2019-01-26T07:29:13.561Z,75.50
2019-01-26T07:31:19.901Z,78.87
2019-01-26T07:33:25.946Z,78.10
2019-01-26T07:35:32.311Z,75.60
2019-01-26T07:37:40.505Z,78.10
2019-01-26T07:39:48.272Z,81.97
2019-01-26T07:41:54.700Z,89.47
2019-01-26T07:44:00.942Z,85.77
2019-01-26T07:46:07.200Z,81.57
2019-01-26T07:48:16.920Z,79.67
2019-01-26T07:50:26.482Z,84.87
2019-01-26T07:52:32.922Z,84.40
2019-01-26T07:54:40.954Z,85.37
2019-01-26T07:56:47.321Z,77.27
2019-01-26T07:58:54.401Z,79.23
2019-01-26T08:01:01.461Z,65.47
2019-01-26T08:03:07.620Z,77.50
2019-01-26T08:05:13.961Z,66.20
2019-01-26T08:07:20.548Z,83.87
2019-01-26T08:09:28.251Z,82.27
2019-01-26T08:11:34.422Z,79.77
2019-01-26T08:13:41.976Z,79.53
2019-01-26T08:15:49.692Z,75.57
2019-01-26T08:17:56.764Z,81.87
2019-01-26T08:20:03.581Z,79.00
2019-01-26T08:22:09.785Z,84.83
2019-01-26T08:24:15.955Z,75.13
2019-01-26T08:26:23.171Z,73.23
2019-01-26T08:28:29.294Z,88.70
2019-01-26T08:30:35.610Z,80.80
2019-01-26T08:32:42.424Z,75.40
2019-01-26T08:34:48.776Z,75.90
2019-01-26T08:36:54.943Z,82.63
2019-01-26T08:39:02.281Z,72.20
2019-01-26T08:41:08.597Z,97.10
2019-01-26T08:43:14.975Z,104.47
2019-01-26T08:45:21.107Z,95.77
2019-01-26T08:47:27.431Z,148.80
2019-01-26T08:49:33.702Z,134.63
2019-01-26T08:51:40.508Z,380.13
2019-01-26T08:53:47.842Z,146.00
2019-01-26T08:55:54.256Z,82.93
2019-01-26T08:58:03.029Z,79.40
2019-01-26T09:00:28.590Z,81.33
2019-01-26T09:02:46.020Z,80.97
2019-01-26T09:04:55.768Z,90.43
2019-01-26T09:07:02.948Z,80.80
2019-01-26T09:09:11.591Z,90.23
2019-01-26T09:11:17.711Z,76.23
2019-01-26T09:13:23.990Z,75.87
2019-01-26T09:15:32.053Z,76.03
2019-01-26T09:17:38.331Z,80.70
2019-01-26T09:19:46.023Z,89.43
2019-01-26T09:21:55.410Z,78.47
2019-01-26T09:24:02.551Z,82.77
2019-01-26T09:26:10.693Z,83.50
2019-01-26T09:28:17.157Z,83.83
2019-01-26T09:30:23.679Z,91.13
2019-01-26T09:32:32.257Z,79.90
2019-01-26T09:34:39.741Z,87.73
2019-01-26T09:36:46.150Z,77.63
2019-01-26T09:38:52.187Z,77.43
2019-01-26T09:40:58.618Z,72.87
2019-01-26T09:43:05.046Z,74.97
2019-01-26T09:45:20.611Z,85.23
2019-01-26T09:47:26.761Z,78.43
2019-01-26T09:49:33.140Z,81.93
2019-01-26T09:51:42.671Z,92.47
2019-01-26T09:53:49.281Z,88.37
2019-01-26T09:55:57.321Z,78.53
2019-01-26T09:58:03.571Z,75.67
2019-01-26T10:00:26.340Z,81.57
2019-01-26T10:02:33.721Z,92.17
2019-01-26T10:04:40.557Z,93.57
2019-01-26T10:06:46.998Z,103.03
2019-01-26T10:08:53.320Z,88.97
2019-01-26T10:11:00.012Z,80.67
2019-01-26T10:13:06.341Z,85.43
2019-01-26T10:15:23.471Z,100.97
2019-01-26T10:17:30.350Z,94.30
2019-01-26T10:19:37.440Z,86.67
2019-01-26T10:21:43.901Z,92.23
2019-01-26T10:23:51.281Z,80.93
2019-01-26T10:25:57.877Z,89.60
2019-01-26T10:28:04.581Z,83.47
2019-01-26T10:30:25.722Z,76.43
2019-01-26T10:32:32.682Z,84.53
2019-01-26T10:34:39.049Z,80.50
2019-01-26T10:36:47.906Z,82.10
2019-01-26T10:38:55.570Z,81.03
2019-01-26T10:41:03.381Z,73.07
2019-01-26T10:43:10.768Z,74.13
2019-01-26T10:45:19.490Z,84.47
2019-01-26T10:47:27.730Z,96.57
2019-01-26T10:49:34.311Z,98.40
2019-01-26T10:51:40.491Z,84.80
2019-01-26T10:53:49.530Z,88.37
2019-01-26T10:55:57.491Z,80.73
2019-01-26T10:58:05.961Z,84.90
2019-01-26T11:00:19.961Z,94.23
2019-01-26T11:02:26.378Z,84.90
2019-01-26T11:04:32.512Z,89.67
2019-01-26T11:06:38.690Z,98.13
2019-01-26T11:08:46.699Z,93.37
2019-01-26T11:10:53.559Z,91.77
2019-01-26T11:13:00.103Z,82.53
2019-01-26T11:15:10.062Z,87.60
2019-01-26T11:17:16.945Z,88.37
2019-01-26T11:19:24.026Z,91.13
2019-01-26T11:21:34.081Z,85.67
2019-01-26T11:23:41.046Z,84.00
2019-01-26T11:25:47.095Z,99.97
2019-01-26T11:27:53.563Z,96.03
2019-01-26T11:30:00.210Z,86.57
2019-01-26T11:32:06.626Z,115.83
2019-01-26T11:34:13.382Z,124.23
2019-01-26T11:36:20.126Z,111.67
2019-01-26T11:38:27.486Z,104.13
2019-01-26T11:40:35.086Z,95.63
2019-01-26T11:42:41.986Z,97.20
2019-01-26T11:45:05.852Z,81.33
2019-01-26T11:47:16.114Z,97.50
2019-01-26T11:49:23.395Z,103.97
2019-01-26T11:51:31.195Z,90.10
2019-01-26T11:53:38.337Z,89.50
2019-01-26T11:55:46.279Z,91.30
2019-01-26T11:57:52.731Z,91.07
2019-01-26T12:00:09.766Z,96.00
2019-01-26T12:02:18.177Z,88.93
2019-01-26T12:04:26.177Z,85.87
2019-01-26T12:06:35.354Z,82.23
2019-01-26T12:08:41.656Z,88.60
2019-01-26T12:10:48.143Z,86.37
2019-01-26T12:12:54.375Z,82.70
2019-01-26T12:15:00.521Z,92.50
2019-01-26T12:17:07.315Z,90.53
2019-01-26T12:19:13.692Z,94.87
2019-01-26T12:21:26.868Z,93.53
2019-01-26T12:23:33.443Z,89.47
2019-01-26T12:25:39.523Z,95.03
2019-01-26T12:27:45.987Z,96.37
2019-01-26T12:29:53.363Z,105.90
2019-01-26T12:32:00.440Z,105.67
2019-01-26T12:34:06.823Z,102.93
2019-01-26T12:36:13.318Z,104.20
2019-01-26T12:38:19.846Z,101.87
2019-01-26T12:40:28.494Z,97.67
2019-01-26T12:42:34.934Z,105.33
2019-01-26T12:44:41.274Z,105.67
2019-01-26T12:46:47.654Z,106.10
2019-01-26T12:48:54.340Z,113.23
2019-01-26T12:51:01.475Z,106.53
2019-01-26T12:53:08.073Z,118.03
2019-01-26T12:55:20.096Z,121.30
2019-01-26T12:57:26.579Z,88.33
2019-01-26T12:59:32.882Z,90.97
2019-01-26T13:01:40.695Z,111.77
2019-01-26T13:03:47.055Z,95.43
2019-01-26T13:05:53.724Z,92.33
2019-01-26T13:07:59.900Z,106.73
2019-01-26T13:10:10.903Z,101.90
2019-01-26T13:12:17.694Z,105.60
2019-01-26T13:14:24.973Z,107.53
2019-01-26T13:16:35.985Z,95.27
2019-01-26T13:18:43.647Z,103.23
2019-01-26T13:20:50.086Z,102.57
2019-01-26T13:22:57.261Z,105.33
2019-01-26T13:25:08.316Z,101.17
2019-01-26T13:27:14.949Z,108.23
2019-01-26T13:29:21.395Z,125.73
2019-01-26T13:31:28.008Z,118.00
2019-01-26T13:33:34.443Z,111.77
2019-01-26T13:35:41.050Z,99.93
2019-01-26T13:37:47.443Z,97.40
2019-01-26T13:39:55.277Z,94.83
2019-01-26T13:42:03.284Z,113.67
2019-01-26T13:44:20.882Z,97.80
2019-01-26T13:46:28.004Z,94.47
2019-01-26T13:48:35.414Z,96.20
2019-01-26T13:50:43.085Z,91.17
2019-01-26T13:52:50.279Z,85.83
2019-01-26T13:54:57.505Z,100.10
2019-01-26T13:57:04.043Z,104.77
2019-01-26T13:59:10.326Z,101.80
2019-01-26T14:01:17.303Z,98.50
2019-01-26T14:03:23.666Z,100.87
2019-01-26T14:05:30.242Z,105.07
2019-01-26T14:07:36.725Z,92.93
2019-01-26T14:09:46.954Z,127.87
2019-01-26T14:11:53.648Z,99.97
2019-01-26T14:14:00.585Z,97.57
2019-01-26T14:16:07.538Z,97.47
2019-01-26T14:18:14.251Z,102.63
2019-01-26T14:20:28.619Z,103.03
2019-01-26T14:22:34.853Z,102.23
2019-01-26T14:24:41.512Z,99.00
2019-01-26T14:26:49.816Z,90.93
2019-01-26T14:28:56.282Z,95.77
2019-01-26T14:31:03.030Z,102.33
2019-01-26T14:33:10.021Z,97.70
2019-01-26T14:35:18.164Z,96.77
2019-01-26T14:37:24.611Z,116.07
2019-01-26T14:39:31.380Z,103.97
2019-01-26T14:41:38.410Z,100.70
2019-01-26T14:43:44.870Z,94.40
2019-01-26T14:45:51.519Z,100.27
2019-01-26T14:47:58.188Z,99.00
2019-01-26T14:50:07.370Z,101.77
2019-01-26T14:52:15.350Z,108.03
2019-01-26T14:54:22.297Z,103.77
2019-01-26T14:56:29.191Z,107.93
2019-01-26T14:58:35.650Z,116.37
2019-01-26T15:00:42.803Z,116.70
2019-01-26T15:02:49.370Z,109.60
2019-01-26T15:04:56.047Z,111.00
2019-01-26T15:07:04.377Z,104.93
2019-01-26T15:09:11.261Z,108.77
2019-01-26T15:11:20.960Z,112.43
2019-01-26T15:13:27.621Z,108.60
2019-01-26T15:15:34.558Z,118.73
2019-01-26T15:17:40.971Z,103.83
2019-01-26T15:19:47.961Z,110.27
2019-01-26T15:21:54.508Z,133.50
2019-01-26T15:24:00.990Z,142.70
2019-01-26T15:26:07.290Z,126.10
2019-01-26T15:28:13.710Z,106.40
2019-01-26T15:30:29.278Z,105.73
2019-01-26T15:32:36.051Z,98.97
2019-01-26T15:34:42.421Z,107.57
2019-01-26T15:36:49.379Z,347.43
2019-01-26T15:38:56.055Z,135.60
2019-01-26T15:41:04.366Z,334.23
2019-01-26T15:43:11.328Z,274.57
2019-01-26T15:45:22.847Z,175.03
2019-01-26T15:47:29.721Z,134.47
2019-01-26T15:49:36.498Z,118.37
2019-01-26T15:51:43.400Z,117.07
2019-01-26T15:53:53.113Z,100.60
2019-01-26T15:56:02.599Z,113.20
2019-01-26T15:58:12.430Z,115.97
2019-01-26T16:00:26.381Z,118.67
2019-01-26T16:02:34.309Z,126.30
2019-01-26T16:04:43.390Z,115.57
2019-01-26T16:06:50.157Z,127.00
2019-01-26T16:08:56.740Z,120.53
2019-01-26T16:11:03.458Z,123.10
2019-01-26T16:13:10.050Z,121.87
2019-01-26T16:15:23.711Z,115.73
2019-01-26T16:17:30.410Z,125.27
2019-01-26T16:19:37.501Z,103.13
2019-01-26T16:21:47.798Z,113.70
2019-01-26T16:24:03.420Z,112.57
2019-01-26T16:26:15.584Z,111.40
2019-01-26T16:28:29.154Z,127.20
2019-01-26T16:30:39.628Z,112.63
2019-01-26T16:32:47.442Z,122.20
2019-01-26T16:34:54.351Z,124.03
2019-01-26T16:37:01.370Z,134.40
2019-01-26T16:39:09.780Z,115.63
2019-01-26T16:41:17.901Z,115.97
2019-01-26T16:43:27.795Z,116.53
2019-01-26T16:45:39.002Z,114.90
2019-01-26T16:47:50.823Z,115.77
2019-01-26T16:49:58.737Z,112.90
2019-01-26T16:52:05.531Z,117.80
2019-01-26T16:54:15.663Z,124.77
2019-01-26T16:56:28.730Z,115.03
2019-01-26T16:58:42.931Z,113.00
2019-01-26T17:00:49.623Z,115.00
2019-01-26T17:02:56.367Z,119.00
2019-01-26T17:05:04.317Z,107.10
2019-01-26T17:07:11.021Z,120.13
2019-01-26T17:09:20.985Z,135.13
2019-01-26T17:11:34.261Z,121.53
2019-01-26T17:13:45.756Z,116.83
2019-01-26T17:15:53.205Z,127.13
2019-01-26T17:18:00.406Z,118.10
2019-01-26T17:20:34.598Z,120.73
2019-01-26T17:22:37.085Z,130.00
2019-01-26T17:24:45.168Z,137.07
2019-01-26T17:26:53.573Z,140.10
2019-01-26T17:29:00.360Z,147.57
2019-01-26T17:31:06.887Z,135.30
2019-01-26T17:33:15.878Z,140.03
2019-01-26T17:35:27.155Z,136.10
2019-01-26T17:37:40.193Z,138.87
2019-01-26T17:39:50.379Z,137.07
2019-01-26T17:42:04.115Z,141.47
2019-01-26T17:44:19.633Z,136.67
2019-01-26T17:46:33.688Z,280.23
2019-01-26T17:48:50.738Z,214.17
2019-01-26T17:50:59.931Z,175.27
2019-01-26T17:53:09.192Z,140.17
2019-01-26T17:55:15.923Z,132.47
2019-01-26T17:57:26.015Z,157.37
2019-01-26T17:59:37.323Z,134.23
2019-01-26T18:01:51.220Z,145.13
2019-01-26T18:04:04.255Z,170.80
2019-01-26T18:06:11.940Z,146.10
2019-01-26T18:08:18.699Z,130.33
2019-01-26T18:12:40.502Z,123.83
2019-01-26T18:14:47.322Z,121.77
2019-01-26T18:16:54.332Z,131.93
2019-01-26T18:19:01.540Z,126.00
2019-01-26T18:21:08.897Z,130.73
2019-01-26T18:23:17.850Z,134.47
2019-01-26T18:25:26.281Z,126.83
2019-01-26T18:27:33.289Z,129.70
2019-01-26T18:29:40.039Z,123.20
2019-01-26T18:31:46.910Z,137.87
2019-01-26T18:33:53.897Z,155.10
2019-01-26T18:36:01.280Z,135.90
2019-01-26T18:38:08.057Z,127.97
2019-01-26T18:40:22.769Z,128.83
2019-01-26T18:42:29.548Z,127.73
2019-01-26T18:44:38.400Z,124.47
2019-01-26T18:46:47.111Z,138.43
2019-01-26T18:48:54.007Z,133.37
2019-01-26T18:51:00.920Z,129.13
2019-01-26T18:53:07.707Z,126.50
2019-01-26T18:55:14.613Z,123.20
2019-01-26T18:57:21.305Z,123.03
2019-01-26T18:59:28.163Z,113.53
2019-01-26T19:01:34.832Z,122.10
2019-01-26T19:03:51.705Z,114.87
2019-01-26T19:06:00.783Z,121.83
2019-01-26T19:08:08.027Z,112.27
2019-01-26T19:10:15.403Z,122.47
2019-01-26T19:12:22.107Z,112.77
2019-01-26T19:14:29.127Z,80.60
2019-01-26T19:16:36.542Z,113.63
2019-01-26T19:18:43.374Z,96.60
2019-01-26T19:20:50.128Z,92.77
2019-01-26T19:23:01.878Z,103.20
2019-01-26T19:25:13.830Z,98.73
2019-01-26T19:27:22.486Z,102.43
2019-01-26T19:29:29.402Z,89.73
2019-01-26T19:31:36.351Z,86.50
2019-01-26T19:33:44.408Z,92.80
2019-01-26T19:35:51.648Z,105.83
2019-01-26T19:37:58.565Z,212.47
2019-01-26T19:40:14.442Z,124.23
2019-01-26T19:42:21.494Z,87.30
2019-01-26T19:44:28.189Z,112.90
2019-01-26T19:46:35.176Z,117.00
2019-01-26T19:48:42.214Z,132.97
2019-01-26T19:50:49.003Z,95.27
2019-01-26T19:52:56.351Z,96.43
2019-01-26T19:55:03.043Z,98.27
2019-01-26T19:57:10.031Z,95.07
2019-01-26T19:59:17.900Z,79.53
2019-01-26T20:01:25.665Z,84.63
2019-01-26T20:03:32.390Z,98.03
2019-01-26T20:05:39.060Z,89.13
2019-01-26T20:07:45.954Z,87.00
2019-01-26T20:09:53.039Z,90.57
2019-01-26T20:12:00.010Z,90.40
2019-01-26T20:14:06.892Z,82.07
2019-01-26T20:16:14.220Z,82.20
2019-01-26T20:18:22.060Z,79.67
2019-01-26T20:20:35.904Z,83.33
2019-01-26T20:22:42.569Z,86.00
2019-01-26T20:24:49.939Z,89.83
2019-01-26T20:26:57.782Z,105.70
2019-01-26T20:29:05.904Z,86.93
2019-01-26T20:31:13.074Z,99.50
2019-01-26T20:33:19.878Z,94.07
2019-01-26T20:35:26.262Z,91.00
2019-01-26T20:37:33.203Z,86.03
2019-01-26T20:39:41.935Z,98.37
2019-01-26T20:41:48.650Z,89.93
2019-01-26T20:43:55.596Z,92.23
2019-01-26T20:46:03.105Z,94.67
2019-01-26T20:48:10.440Z,87.67
2019-01-26T20:50:17.241Z,96.77
2019-01-26T20:52:23.990Z,93.97
2019-01-26T20:54:30.594Z,103.30
2019-01-26T20:56:37.334Z,107.47
2019-01-26T20:58:44.705Z,94.63
2019-01-26T21:00:51.333Z,90.50
2019-01-26T21:02:58.484Z,93.80
2019-01-26T21:05:06.329Z,100.80
2019-01-26T21:07:14.845Z,89.40
2019-01-26T21:09:22.484Z,99.00
2019-01-26T21:11:29.173Z,96.07
2019-01-26T21:13:35.717Z,87.37
2019-01-26T21:15:43.082Z,93.17
2019-01-26T21:17:50.799Z,96.83
2019-01-26T21:19:57.573Z,100.70
2019-01-26T21:22:04.660Z,83.07
2019-01-26T21:24:33.410Z,90.60
2019-01-26T21:26:40.054Z,84.90
2019-01-26T21:28:47.045Z,87.83
2019-01-26T21:30:53.884Z,85.20
2019-01-26T21:33:00.814Z,89.60
2019-01-26T21:35:13.262Z,85.93
2019-01-26T21:37:20.021Z,86.90
2019-01-26T21:39:29.034Z,78.27
2019-01-26T21:41:36.979Z,89.03
2019-01-26T21:43:44.288Z,76.03
2019-01-26T21:45:50.962Z,75.60
2019-01-26T21:47:57.833Z,79.07
2019-01-26T21:50:06.334Z,81.17
2019-01-26T21:52:14.353Z,68.70
2019-01-26T21:54:21.722Z,76.00
2019-01-26T21:56:28.293Z,92.20
2019-01-26T21:58:34.551Z,86.57
2019-01-26T22:00:41.185Z,80.33
2019-01-26T22:02:47.424Z,75.77
2019-01-26T22:04:53.924Z,77.13
2019-01-26T22:07:00.443Z,71.27
2019-01-26T22:09:09.370Z,70.80
2019-01-26T22:13:37.264Z,84.27
2019-01-26T22:15:43.754Z,90.37
2019-01-26T22:17:51.773Z,74.80
2019-01-26T22:20:01.203Z,84.70
2019-01-26T22:22:09.107Z,91.73
2019-01-26T22:24:15.685Z,92.63
2019-01-26T22:26:22.121Z,80.13
2019-01-26T22:28:28.683Z,79.47
2019-01-26T22:30:36.340Z,77.53
2019-01-26T22:32:43.524Z,80.87
2019-01-26T22:34:53.632Z,69.73
2019-01-26T22:37:00.533Z,72.10
2019-01-26T22:39:09.840Z,73.70
2019-01-26T22:41:17.303Z,68.47
2019-01-26T22:43:23.737Z,75.77
2019-01-26T22:45:30.324Z,68.10
2019-01-26T22:47:37.683Z,74.83
2019-01-26T22:49:44.122Z,69.47
2019-01-26T22:51:53.401Z,69.70
2019-01-26T22:54:00.533Z,68.33
2019-01-26T22:56:07.966Z,66.97
2019-01-26T22:58:14.690Z,76.73
2019-01-26T23:00:53.055Z,76.87
2019-01-26T23:03:02.075Z,72.33
2019-01-26T23:05:44.886Z,70.80
2019-01-26T23:07:52.925Z,67.13
2019-01-26T23:10:12.093Z,67.63
2019-01-26T23:12:47.913Z,61.60
2019-01-26T23:15:13.564Z,73.83
2019-01-26T23:17:27.403Z,68.60
2019-01-26T23:19:44.723Z,68.30
2019-01-26T23:22:15.368Z,71.43
2019-01-26T23:24:32.690Z,76.13
2019-01-26T23:27:11.800Z,70.07
2019-01-26T23:29:44.911Z,58.93
2019-01-26T23:31:51.563Z,64.33
2019-01-26T23:33:57.805Z,66.43
2019-01-26T23:36:04.363Z,67.37
2019-01-26T23:38:12.090Z,66.63
2019-01-26T23:40:18.483Z,66.00
2019-01-26T23:42:24.770Z,70.87
2019-01-26T23:44:31.054Z,64.27
2019-01-26T23:46:38.432Z,68.60
2019-01-26T23:48:44.763Z,67.73
2019-01-26T23:50:51.115Z,58.37
2019-01-26T23:52:57.326Z,60.73
2019-01-26T23:55:03.974Z,53.93
2019-01-26T23:57:11.914Z,65.83
2019-01-26T23:59:19.643Z,55.20
